sensor_id;sensor_type;location;lat;lon;timestamp;pressure;altitude;pressure_sealevel;temperature;humidity
77877;BME280;67251;50.844;7.978;2023-08-21T00:00:55;99424.94;;;17.14;100.00
77877;BME280;67251;50.844;7.978;2023-08-21T00:03:20;99420.72;;;17.18;100.00
77877;BME280;67251;50.844;7.978;2023-08-21T00:05:46;99420.47;;;17.19;100.00
77877;BME280;67251;50.844;7.978;2023-08-21T00:08:11;99419.41;;;17.20;100.00
77877;BME280;67251;50.844;7.978;2023-08-21T00:10:37;99418.59;;;17.20;100.00
77877;BME280;67251;50.844;7.978;2023-08-21T00:13:03;99416.13;;;17.18;100.00
77877;BME280;67251;50.844;7.978;2023-08-21T00:15:28;99419.88;;;17.17;100.00
77877;BME280;67251;50.844;7.978;2023-08-21T00:17:54;99412.69;;;17.11;100.00
77877;BME280;67251;50.844;7.978;2023-08-21T00:20:19;99407.38;;;17.04;100.00
77877;BME280;67251;50.844;7.978;2023-08-21T00:22:45;99407.69;;;16.96;100.00
77877;BME280;67251;50.844;7.978;2023-08-21T00:25:10;99402.97;;;16.92;100.00
77877;BME280;67251;50.844;7.978;2023-08-21T00:27:36;99410.56;;;16.83;100.00
77877;BME280;67251;50.844;7.978;2023-08-21T00:30:01;99406.31;;;16.75;100.00
77877;BME280;67251;50.844;7.978;2023-08-21T00:32:26;99405.09;;;16.71;100.00
77877;BME280;67251;50.844;7.978;2023-08-21T00:34:52;99410.13;;;16.68;100.00
77877;BME280;67251;50.844;7.978;2023-08-21T00:37:17;99402.25;;;16.66;100.00
77877;BME280;67251;50.844;7.978;2023-08-21T00:39:43;99408.84;;;16.70;100.00
77877;BME280;67251;50.844;7.978;2023-08-21T00:42:08;99410.19;;;16.79;100.00
77877;BME280;67251;50.844;7.978;2023-08-21T00:44:33;99404.94;;;16.84;100.00
77877;BME280;67251;50.844;7.978;2023-08-21T00:46:59;99404.47;;;16.88;100.00
77877;BME280;67251;50.844;7.978;2023-08-21T00:49:25;99410.69;;;16.88;100.00
77877;BME280;67251;50.844;7.978;2023-08-21T00:51:51;99404.03;;;16.91;100.00
77877;BME280;67251;50.844;7.978;2023-08-21T00:54:16;99401.56;;;16.89;100.00
77877;BME280;67251;50.844;7.978;2023-08-21T00:56:42;99402.59;;;16.88;100.00
77877;BME280;67251;50.844;7.978;2023-08-21T00:59:08;99410.69;;;16.88;100.00
77877;BME280;67251;50.844;7.978;2023-08-21T01:01:34;99403.91;;;16.85;100.00
77877;BME280;67251;50.844;7.978;2023-08-21T01:04:00;99399.38;;;16.79;100.00
77877;BME280;67251;50.844;7.978;2023-08-21T01:06:26;99412.53;;;16.76;100.00
77877;BME280;67251;50.844;7.978;2023-08-21T01:09:13;99408.84;;;16.70;100.00
77877;BME280;67251;50.844;7.978;2023-08-21T01:11:48;99409.97;;;16.63;100.00
77877;BME280;67251;50.844;7.978;2023-08-21T01:14:31;99406.75;;;16.54;100.00
77877;BME280;67251;50.844;7.978;2023-08-21T01:17:00;99409.31;;;16.49;100.00
77877;BME280;67251;50.844;7.978;2023-08-21T01:19:36;99402.69;;;16.45;100.00
77877;BME280;67251;50.844;7.978;2023-08-21T01:22:02;99404.19;;;16.41;100.00
77877;BME280;67251;50.844;7.978;2023-08-21T01:24:28;99413.88;;;16.30;100.00
77877;BME280;67251;50.844;7.978;2023-08-21T01:26:53;99417.69;;;16.22;100.00
77877;BME280;67251;50.844;7.978;2023-08-21T01:29:19;99423.09;;;16.22;100.00
77877;BME280;67251;50.844;7.978;2023-08-21T01:31:50;99420.22;;;16.17;100.00
77877;BME280;67251;50.844;7.978;2023-08-21T01:34:16;99424.81;;;16.17;100.00
77877;BME280;67251;50.844;7.978;2023-08-21T01:36:42;99424.56;;;16.18;100.00
77877;BME280;67251;50.844;7.978;2023-08-21T01:39:08;99426.44;;;16.18;100.00
77877;BME280;67251;50.844;7.978;2023-08-21T01:41:34;99427.50;;;16.17;100.00
77877;BME280;67251;50.844;7.978;2023-08-21T01:43:59;99425.25;;;16.14;100.00
77877;BME280;67251;50.844;7.978;2023-08-21T01:48:52;99424.78;;;15.98;100.00
77877;BME280;67251;50.844;7.978;2023-08-21T01:51:18;99413.38;;;15.96;100.00
77877;BME280;67251;50.844;7.978;2023-08-21T01:53:43;99421.03;;;15.99;100.00
77877;BME280;67251;50.844;7.978;2023-08-21T01:56:08;99421.50;;;15.96;100.00
77877;BME280;67251;50.844;7.978;2023-08-21T01:58:34;99419.88;;;15.89;100.00
77877;BME280;67251;50.844;7.978;2023-08-21T02:00:59;99419.97;;;15.82;100.00
77877;BME280;67251;50.844;7.978;2023-08-21T02:03:25;99417.28;;;15.75;100.00
77877;BME280;67251;50.844;7.978;2023-08-21T02:05:50;99417.38;;;15.69;100.00
77877;BME280;67251;50.844;7.978;2023-08-21T02:08:17;99414.72;;;15.62;100.00
77877;BME280;67251;50.844;7.978;2023-08-21T02:10:52;99416.19;;;15.58;100.00
77877;BME280;67251;50.844;7.978;2023-08-21T02:13:19;99411.16;;;15.62;100.00
77877;BME280;67251;50.844;7.978;2023-08-21T02:15:46;99402.03;;;15.63;100.00
77877;BME280;67251;50.844;7.978;2023-08-21T02:18:11;99407.63;;;15.61;100.00
77877;BME280;67251;50.844;7.978;2023-08-21T02:20:37;99407.22;;;15.64;100.00
77877;BME280;67251;50.844;7.978;2023-08-21T02:23:02;99412.00;;;15.62;100.00
77877;BME280;67251;50.844;7.978;2023-08-21T02:25:29;99415.72;;;15.61;100.00
77877;BME280;67251;50.844;7.978;2023-08-21T02:27:55;99416.19;;;15.58;100.00
77877;BME280;67251;50.844;7.978;2023-08-21T02:30:20;99408.28;;;15.56;100.00
77877;BME280;67251;50.844;7.978;2023-08-21T02:32:50;99413.97;;;15.48;100.00
77877;BME280;67251;50.844;7.978;2023-08-21T02:35:15;99409.00;;;15.45;100.00
77877;BME280;67251;50.844;7.978;2023-08-21T02:37:41;99408.22;;;15.38;100.00
77877;BME280;67251;50.844;7.978;2023-08-21T02:40:06;99415.94;;;15.34;100.00
77877;BME280;67251;50.844;7.978;2023-08-21T02:42:35;99416.13;;;15.33;100.00
77877;BME280;67251;50.844;7.978;2023-08-21T02:45:01;99419.66;;;15.33;100.00
77877;BME280;67251;50.844;7.978;2023-08-21T02:47:29;99421.34;;;15.34;100.00
77877;BME280;67251;50.844;7.978;2023-08-21T02:49:55;99404.53;;;15.32;100.00
77877;BME280;67251;50.844;7.978;2023-08-21T02:52:20;99413.72;;;15.25;100.00
77877;BME280;67251;50.844;7.978;2023-08-21T02:54:45;99412.28;;;15.22;100.00
77877;BME280;67251;50.844;7.978;2023-08-21T03:00:32;99411.69;;;15.20;100.00
77877;BME280;67251;50.844;7.978;2023-08-21T03:02:58;99411.06;;;15.18;100.00
77877;BME280;67251;50.844;7.978;2023-08-21T03:05:23;99409.63;;;15.16;100.00
77877;BME280;67251;50.844;7.978;2023-08-21T03:07:48;99411.28;;;15.17;100.00
77877;BME280;67251;50.844;7.978;2023-08-21T03:10:14;99404.63;;;15.19;100.00
77877;BME280;67251;50.844;7.978;2023-08-21T03:12:39;99404.41;;;15.21;100.00
77877;BME280;67251;50.844;7.978;2023-08-21T03:15:05;99403.13;;;15.23;100.00
77877;BME280;67251;50.844;7.978;2023-08-21T03:17:31;99410.63;;;15.21;100.00
77877;BME280;67251;50.844;7.978;2023-08-21T03:19:56;99407.75;;;15.16;100.00
77877;BME280;67251;50.844;7.978;2023-08-21T03:22:22;99404.44;;;15.14;100.00
77877;BME280;67251;50.844;7.978;2023-08-21T03:24:47;99410.28;;;15.11;100.00
77877;BME280;67251;50.844;7.978;2023-08-21T03:27:15;99410.72;;;15.08;100.00
77877;BME280;67251;50.844;7.978;2023-08-21T03:29:40;99409.25;;;15.12;100.00
77877;BME280;67251;50.844;7.978;2023-08-21T03:32:06;99403.63;;;15.14;100.00
77877;BME280;67251;50.844;7.978;2023-08-21T03:34:31;99406.38;;;15.07;100.00
77877;BME280;67251;50.844;7.978;2023-08-21T03:36:56;99408.44;;;15.05;100.00
77877;BME280;67251;50.844;7.978;2023-08-21T03:39:22;99409.47;;;15.04;100.00
77877;BME280;67251;50.844;7.978;2023-08-21T03:41:47;99404.09;;;15.04;100.00
77877;BME280;67251;50.844;7.978;2023-08-21T03:44:12;99404.53;;;15.01;100.00
77877;BME280;67251;50.844;7.978;2023-08-21T03:46:38;99413.22;;;15.03;100.00
77877;BME280;67251;50.844;7.978;2023-08-21T03:49:03;99407.44;;;14.99;100.00
77877;BME280;67251;50.844;7.978;2023-08-21T03:51:28;99401.22;;;14.99;100.00
77877;BME280;67251;50.844;7.978;2023-08-21T03:53:54;99405.56;;;15.00;100.00
77877;BME280;67251;50.844;7.978;2023-08-21T03:56:19;99404.09;;;15.04;100.00
77877;BME280;67251;50.844;7.978;2023-08-21T03:58:45;99403.50;;;15.02;100.00
77877;BME280;67251;50.844;7.978;2023-08-21T04:01:10;99411.81;;;14.94;100.00
77877;BME280;67251;50.844;7.978;2023-08-21T04:03:35;99404.56;;;14.94;100.00
77877;BME280;67251;50.844;7.978;2023-08-21T04:06:01;99410.38;;;14.91;100.00
77877;BME280;67251;50.844;7.978;2023-08-21T04:08:26;99411.22;;;14.92;100.00
77877;BME280;67251;50.844;7.978;2023-08-21T04:10:52;99403.31;;;14.97;100.00
77877;BME280;67251;50.844;7.978;2023-08-21T04:13:24;99414.75;;;14.92;100.00
77877;BME280;67251;50.844;7.978;2023-08-21T04:15:49;99412.69;;;14.88;100.00
77877;BME280;67251;50.844;7.978;2023-08-21T04:18:16;99418.72;;;14.83;100.00
77877;BME280;67251;50.844;7.978;2023-08-21T04:20:41;99421.63;;;14.81;100.00
77877;BME280;67251;50.844;7.978;2023-08-21T04:23:06;99419.78;;;14.82;100.00
77877;BME280;67251;50.844;7.978;2023-08-21T04:25:32;99417.63;;;14.91;100.00
77877;BME280;67251;50.844;7.978;2023-08-21T04:27:57;99421.38;;;14.90;100.00
77877;BME280;67251;50.844;7.978;2023-08-21T04:30:22;99420.97;;;14.93;100.00
77877;BME280;67251;50.844;7.978;2023-08-21T04:32:48;99418.88;;;14.95;100.00
77877;BME280;67251;50.844;7.978;2023-08-21T04:35:13;99424.88;;;14.97;100.00
77877;BME280;67251;50.844;7.978;2023-08-21T04:37:43;99422.84;;;14.92;100.00
77877;BME280;67251;50.844;7.978;2023-08-21T04:40:09;99417.22;;;14.94;100.00
77877;BME280;67251;50.844;7.978;2023-08-21T04:42:35;99411.19;;;14.98;100.00
77877;BME280;67251;50.844;7.978;2023-08-21T04:45:00;99418.03;;;15.01;100.00
77877;BME280;67251;50.844;7.978;2023-08-21T04:47:27;99409.25;;;15.12;100.00
77877;BME280;67251;50.844;7.978;2023-08-21T04:49:54;99415.84;;;15.16;100.00
77877;BME280;67251;50.844;7.978;2023-08-21T04:52:23;99417.25;;;15.25;100.00
77877;BME280;67251;50.844;7.978;2023-08-21T04:54:49;99418.28;;;15.24;100.00
77877;BME280;67251;50.844;7.978;2023-08-21T04:57:15;99417.44;;;15.24;100.00
77877;BME280;67251;50.844;7.978;2023-08-21T04:59:41;99417.25;;;15.25;100.00
77877;BME280;67251;50.844;7.978;2023-08-21T05:02:06;99430.28;;;15.28;100.00
77877;BME280;67251;50.844;7.978;2023-08-21T05:04:33;99427.97;;;15.32;100.00
77877;BME280;67251;50.844;7.978;2023-08-21T05:06:59;99432.06;;;15.41;100.00
77877;BME280;67251;50.844;7.978;2023-08-21T05:09:25;99435.09;;;15.51;100.00
77877;BME280;67251;50.844;7.978;2023-08-21T05:11:50;99430.88;;;15.62;100.00
77877;BME280;67251;50.844;7.978;2023-08-21T05:14:16;99432.72;;;15.68;100.00
77877;BME280;67251;50.844;7.978;2023-08-21T05:16:43;99427.06;;;15.76;100.00
77877;BME280;67251;50.844;7.978;2023-08-21T05:19:08;99433.38;;;15.89;100.00
77877;BME280;67251;50.844;7.978;2023-08-21T05:21:34;99436.41;;;15.99;100.00
77877;BME280;67251;50.844;7.978;2023-08-21T05:23:59;99424.19;;;15.96;100.00
77877;BME280;67251;50.844;7.978;2023-08-21T05:26:24;99443.25;;;16.01;100.00
77877;BME280;67251;50.844;7.978;2023-08-21T05:28:50;99437.03;;;16.01;100.00
77877;BME280;67251;50.844;7.978;2023-08-21T05:31:15;99432.28;;;15.96;100.00
77877;BME280;67251;50.844;7.978;2023-08-21T05:33:41;99430.41;;;15.97;100.00
77877;BME280;67251;50.844;7.978;2023-08-21T05:36:06;99427.47;;;15.98;100.00
77877;BME280;67251;50.844;7.978;2023-08-21T05:38:32;99433.84;;;16.04;100.00
77877;BME280;67251;50.844;7.978;2023-08-21T05:40:57;99439.63;;;16.07;100.00
77877;BME280;67251;50.844;7.978;2023-08-21T05:43:23;99435.22;;;16.13;100.00
77877;BME280;67251;50.844;7.978;2023-08-21T05:45:49;99441.81;;;16.17;100.00
77877;BME280;67251;50.844;7.978;2023-08-21T05:48:14;99433.44;;;16.25;100.00
77877;BME280;67251;50.844;7.978;2023-08-21T05:50:39;99437.50;;;16.34;100.00
77877;BME280;67251;50.844;7.978;2023-08-21T05:53:05;99441.72;;;16.49;100.00
77877;BME280;67251;50.844;7.978;2023-08-21T05:55:31;99440.75;;;16.61;100.00
77877;BME280;67251;50.844;7.978;2023-08-21T05:57:57;99439.19;;;16.72;100.00
77877;BME280;67251;50.844;7.978;2023-08-21T06:00:22;99441.34;;;16.82;100.00
77877;BME280;67251;50.844;7.978;2023-08-21T06:02:48;99442.25;;;16.94;100.00
77877;BME280;67251;50.844;7.978;2023-08-21T06:05:13;99445.81;;;17.06;100.00
77877;BME280;67251;50.844;7.978;2023-08-21T06:07:39;99448.34;;;17.20;100.00
77877;BME280;67251;50.844;7.978;2023-08-21T06:10:07;99447.09;;;17.34;100.00
77877;BME280;67251;50.844;7.978;2023-08-21T06:12:32;99443.97;;;17.49;100.00
77877;BME280;67251;50.844;7.978;2023-08-21T06:14:57;99450.00;;;17.62;100.00
77877;BME280;67251;50.844;7.978;2023-08-21T06:17:23;99449.81;;;17.76;100.00
77877;BME280;67251;50.844;7.978;2023-08-21T06:19:48;99450.88;;;17.86;100.00
77877;BME280;67251;50.844;7.978;2023-08-21T06:22:14;99452.88;;;17.91;100.00
77877;BME280;67251;50.844;7.978;2023-08-21T06:24:40;99456.19;;;18.05;98.80
77877;BME280;67251;50.844;7.978;2023-08-21T06:27:06;99444.44;;;18.23;97.53
77877;BME280;67251;50.844;7.978;2023-08-21T06:29:32;99445.69;;;18.44;96.70
77877;BME280;67251;50.844;7.978;2023-08-21T06:31:57;99432.72;;;18.57;95.62
77877;BME280;67251;50.844;7.978;2023-08-21T06:34:23;99451.47;;;18.71;94.26
77877;BME280;67251;50.844;7.978;2023-08-21T06:36:48;99444.94;;;18.83;93.17
77877;BME280;67251;50.844;7.978;2023-08-21T06:39:13;99449.88;;;18.86;91.82
77877;BME280;67251;50.844;7.978;2023-08-21T06:41:39;99459.97;;;19.03;91.11
77877;BME280;67251;50.844;7.978;2023-08-21T06:44:04;99447.69;;;19.12;90.23
77877;BME280;67251;50.844;7.978;2023-08-21T06:46:29;99449.50;;;19.23;90.15
77877;BME280;67251;50.844;7.978;2023-08-21T06:48:55;99444.47;;;19.44;88.70
77877;BME280;67251;50.844;7.978;2023-08-21T06:51:20;99448.00;;;19.73;88.21
77877;BME280;67251;50.844;7.978;2023-08-21T06:53:45;99441.06;;;19.99;86.51
77877;BME280;67251;50.844;7.978;2023-08-21T06:56:12;99441.41;;;20.02;83.82
77877;BME280;67251;50.844;7.978;2023-08-21T06:58:37;99435.44;;;20.22;83.87
77877;BME280;67251;50.844;7.978;2023-08-21T07:01:03;99434.09;;;20.80;82.51
77877;BME280;67251;50.844;7.978;2023-08-21T07:03:28;99425.13;;;22.83;74.84
77877;BME280;67251;50.844;7.978;2023-08-21T07:05:54;99418.22;;;25.44;64.44
77877;BME280;67251;50.844;7.978;2023-08-21T07:08:23;99415.13;;;27.34;57.88
77877;BME280;67251;50.844;7.978;2023-08-21T07:10:49;99424.50;;;28.31;54.42
77877;BME280;67251;50.844;7.978;2023-08-21T07:13:14;99417.41;;;28.98;51.70
77877;BME280;67251;50.844;7.978;2023-08-21T07:15:40;99420.59;;;30.58;48.08
77877;BME280;67251;50.844;7.978;2023-08-21T07:18:05;99409.97;;;32.21;43.34
77877;BME280;67251;50.844;7.978;2023-08-21T07:20:31;99397.25;;;33.59;40.06
77877;BME280;67251;50.844;7.978;2023-08-21T07:22:56;99405.56;;;34.25;37.08
77877;BME280;67251;50.844;7.978;2023-08-21T07:25:22;99403.56;;;34.14;37.55
77877;BME280;67251;50.844;7.978;2023-08-21T07:27:47;99402.19;;;34.93;36.18
77877;BME280;67251;50.844;7.978;2023-08-21T07:30:12;99408.00;;;35.81;35.32
77877;BME280;67251;50.844;7.978;2023-08-21T07:32:38;99399.72;;;36.44;33.83
77877;BME280;67251;50.844;7.978;2023-08-21T07:35:03;99401.13;;;36.70;33.31
77877;BME280;67251;50.844;7.978;2023-08-21T07:37:29;99395.06;;;36.99;32.16
77877;BME280;67251;50.844;7.978;2023-08-21T07:39:54;99403.13;;;37.59;31.72
77877;BME280;67251;50.844;7.978;2023-08-21T07:42:23;99395.31;;;37.88;30.78
77877;BME280;67251;50.844;7.978;2023-08-21T07:44:48;99396.34;;;38.22;30.58
77877;BME280;67251;50.844;7.978;2023-08-21T07:47:13;99401.56;;;38.46;29.91
77877;BME280;67251;50.844;7.978;2023-08-21T07:49:39;99400.69;;;38.42;30.29
77877;BME280;67251;50.844;7.978;2023-08-21T07:52:04;99403.50;;;38.42;29.86
77877;BME280;67251;50.844;7.978;2023-08-21T07:54:30;99399.19;;;38.48;30.15
77877;BME280;67251;50.844;7.978;2023-08-21T07:56:55;99400.63;;;38.88;29.36
77877;BME280;67251;50.844;7.978;2023-08-21T07:59:21;99399.44;;;39.16;29.33
77877;BME280;67251;50.844;7.978;2023-08-21T08:01:47;99401.25;;;39.31;28.06
77877;BME280;67251;50.844;7.978;2023-08-21T08:04:12;99401.13;;;39.54;27.88
77877;BME280;67251;50.844;7.978;2023-08-21T08:06:38;99400.50;;;39.68;28.96
77877;BME280;67251;50.844;7.978;2023-08-21T08:09:03;99395.97;;;39.93;27.67
77877;BME280;67251;50.844;7.978;2023-08-21T08:11:29;99395.25;;;40.00;27.50
77877;BME280;67251;50.844;7.978;2023-08-21T08:13:55;99398.72;;;39.86;28.48
77877;BME280;67251;50.844;7.978;2023-08-21T08:16:20;99395.78;;;40.13;27.94
77877;BME280;67251;50.844;7.978;2023-08-21T08:18:46;99392.41;;;39.29;28.39
77877;BME280;67251;50.844;7.978;2023-08-21T08:21:11;99398.84;;;38.76;28.81
77877;BME280;67251;50.844;7.978;2023-08-21T08:23:37;99394.28;;;39.51;28.04
77877;BME280;67251;50.844;7.978;2023-08-21T08:26:02;99395.97;;;39.59;27.67
77877;BME280;67251;50.844;7.978;2023-08-21T08:28:27;99387.66;;;40.04;27.35
77877;BME280;67251;50.844;7.978;2023-08-21T08:30:53;99388.34;;;39.94;26.88
77877;BME280;67251;50.844;7.978;2023-08-21T08:33:19;99396.88;;;38.77;27.72
77877;BME280;67251;50.844;7.978;2023-08-21T08:35:45;99398.53;;;38.81;28.83
77877;BME280;67251;50.844;7.978;2023-08-21T08:38:10;99389.88;;;39.50;28.37
77877;BME280;67251;50.844;7.978;2023-08-21T08:40:42;99381.09;;;39.89;28.06
77877;BME280;67251;50.844;7.978;2023-08-21T08:43:08;99380.56;;;40.58;27.99
77877;BME280;67251;50.844;7.978;2023-08-21T08:45:34;99387.16;;;40.87;26.81
77877;BME280;67251;50.844;7.978;2023-08-21T08:48:00;99383.03;;;40.22;27.91
77877;BME280;67251;50.844;7.978;2023-08-21T08:50:29;99379.22;;;40.45;27.57
77877;BME280;67251;50.844;7.978;2023-08-21T08:52:57;99394.31;;;39.89;28.33
77877;BME280;67251;50.844;7.978;2023-08-21T08:55:22;99394.34;;;39.92;28.40
77877;BME280;67251;50.844;7.978;2023-08-21T08:57:48;99381.41;;;40.18;27.96
77877;BME280;67251;50.844;7.978;2023-08-21T09:00:14;99389.81;;;39.77;27.88
77877;BME280;67251;50.844;7.978;2023-08-21T09:02:40;99395.28;;;39.66;28.98
77877;BME280;67251;50.844;7.978;2023-08-21T09:05:06;99382.78;;;39.26;29.07
77877;BME280;67251;50.844;7.978;2023-08-21T09:07:33;99388.50;;;39.37;28.69
77877;BME280;67251;50.844;7.978;2023-08-21T09:09:58;99384.28;;;39.50;28.48
77877;BME280;67251;50.844;7.978;2023-08-21T09:12:24;99394.09;;;40.04;28.68
77877;BME280;67251;50.844;7.978;2023-08-21T09:14:49;99379.47;;;39.84;27.88
77877;BME280;67251;50.844;7.978;2023-08-21T09:17:15;99383.00;;;39.14;28.65
77877;BME280;67251;50.844;7.978;2023-08-21T09:19:41;99384.28;;;38.64;29.20
77877;BME280;67251;50.844;7.978;2023-08-21T09:22:12;99377.78;;;38.82;29.52
77877;BME280;67251;50.844;7.978;2023-08-21T09:24:39;99383.94;;;38.69;28.92
77877;BME280;67251;50.844;7.978;2023-08-21T09:27:12;99377.41;;;37.69;30.96
77877;BME280;67251;50.844;7.978;2023-08-21T09:29:39;99380.75;;;37.98;30.82
77877;BME280;67251;50.844;7.978;2023-08-21T09:32:06;99374.03;;;37.41;30.46
77877;BME280;67251;50.844;7.978;2023-08-21T09:34:36;99377.97;;;37.01;31.57
77877;BME280;67251;50.844;7.978;2023-08-21T09:37:05;99372.31;;;37.17;32.50
77877;BME280;67251;50.844;7.978;2023-08-21T09:39:35;99383.13;;;36.99;32.42
77877;BME280;67251;50.844;7.978;2023-08-21T09:42:05;99378.34;;;37.19;31.81
77877;BME280;67251;50.844;7.978;2023-08-21T09:44:35;99388.06;;;35.51;34.35
77877;BME280;67251;50.844;7.978;2023-08-21T09:47:00;99378.47;;;35.36;34.95
77877;BME280;67251;50.844;7.978;2023-08-21T09:49:26;99378.34;;;35.73;35.08
77877;BME280;67251;50.844;7.978;2023-08-21T09:51:52;99379.06;;;36.14;34.13
77877;BME280;67251;50.844;7.978;2023-08-21T09:54:19;99377.09;;;36.81;32.63
77877;BME280;67251;50.844;7.978;2023-08-21T09:56:46;99380.31;;;36.83;33.39
77877;BME280;67251;50.844;7.978;2023-08-21T09:59:13;99365.72;;;37.64;32.21
77877;BME280;67251;50.844;7.978;2023-08-21T10:01:39;99374.31;;;37.74;31.86
77877;BME280;67251;50.844;7.978;2023-08-21T10:04:06;99368.06;;;37.62;31.67
77877;BME280;67251;50.844;7.978;2023-08-21T10:06:33;99372.69;;;37.54;30.88
77877;BME280;67251;50.844;7.978;2023-08-21T10:09:00;99361.03;;;37.48;30.98
77877;BME280;67251;50.844;7.978;2023-08-21T10:11:25;99370.56;;;37.28;31.74
77877;BME280;67251;50.844;7.978;2023-08-21T10:13:51;99355.34;;;37.64;32.30
77877;BME280;67251;50.844;7.978;2023-08-21T10:16:18;99366.25;;;37.50;32.75
77877;BME280;67251;50.844;7.978;2023-08-21T10:18:44;99359.50;;;37.51;31.49
77877;BME280;67251;50.844;7.978;2023-08-21T10:21:13;99355.53;;;37.32;30.70
77877;BME280;67251;50.844;7.978;2023-08-21T10:23:39;99366.44;;;37.22;31.09
77877;BME280;67251;50.844;7.978;2023-08-21T10:26:06;99358.38;;;37.17;31.91
77877;BME280;67251;50.844;7.978;2023-08-21T10:28:48;99350.16;;;37.24;31.59
77877;BME280;67251;50.844;7.978;2023-08-21T10:33:56;99357.25;;;37.02;32.55
77877;BME280;67251;50.844;7.978;2023-08-21T10:42:10;99358.03;;;35.88;35.04
77877;BME280;67251;50.844;7.978;2023-08-21T10:47:18;99361.31;;;34.81;34.74
77877;BME280;67251;50.844;7.978;2023-08-21T10:49:48;99363.75;;;34.71;35.22
77877;BME280;67251;50.844;7.978;2023-08-21T10:52:14;99362.47;;;34.80;34.66
77877;BME280;67251;50.844;7.978;2023-08-21T10:54:48;99362.88;;;35.19;36.16
77877;BME280;67251;50.844;7.978;2023-08-21T10:57:14;99358.47;;;35.18;36.07
77877;BME280;67251;50.844;7.978;2023-08-21T10:59:49;99356.72;;;35.26;34.13
77877;BME280;67251;50.844;7.978;2023-08-21T11:02:15;99353.44;;;35.64;36.35
77877;BME280;67251;50.844;7.978;2023-08-21T11:04:40;99350.84;;;35.71;34.17
77877;BME280;67251;50.844;7.978;2023-08-21T11:07:07;99347.13;;;35.51;35.37
77877;BME280;67251;50.844;7.978;2023-08-21T11:09:35;99348.84;;;34.63;36.47
77877;BME280;67251;50.844;7.978;2023-08-21T11:12:06;99350.22;;;34.45;37.78
77877;BME280;67251;50.844;7.978;2023-08-21T11:14:31;99345.59;;;34.12;35.27
77877;BME280;67251;50.844;7.978;2023-08-21T11:16:59;99354.59;;;34.09;38.09
77877;BME280;67251;50.844;7.978;2023-08-21T11:19:24;99344.97;;;34.06;37.55
77877;BME280;67251;50.844;7.978;2023-08-21T11:21:52;99350.09;;;34.29;38.23
77877;BME280;67251;50.844;7.978;2023-08-21T11:24:18;99355.47;;;34.58;36.02
77877;BME280;67251;50.844;7.978;2023-08-21T11:26:43;99350.94;;;34.54;37.59
77877;BME280;67251;50.844;7.978;2023-08-21T11:29:09;99356.53;;;33.96;38.56
77877;BME280;67251;50.844;7.978;2023-08-21T11:31:34;99354.19;;;33.74;38.81
77877;BME280;67251;50.844;7.978;2023-08-21T11:34:00;99354.34;;;33.36;37.77
77877;BME280;67251;50.844;7.978;2023-08-21T11:36:25;99352.69;;;33.43;38.35
77877;BME280;67251;50.844;7.978;2023-08-21T11:39:01;99350.91;;;33.72;36.98
77877;BME280;67251;50.844;7.978;2023-08-21T11:41:28;99344.09;;;33.36;37.25
77877;BME280;67251;50.844;7.978;2023-08-21T11:44:01;99348.88;;;32.85;37.67
77877;BME280;67251;50.844;7.978;2023-08-21T11:46:28;99353.22;;;33.16;38.90
77877;BME280;67251;50.844;7.978;2023-08-21T11:48:53;99330.00;;;33.41;36.62
77877;BME280;67251;50.844;7.978;2023-08-21T11:51:18;99347.88;;;33.31;36.05
77877;BME280;67251;50.844;7.978;2023-08-21T11:53:47;99344.47;;;33.26;37.20
77877;BME280;67251;50.844;7.978;2023-08-21T11:56:17;99348.06;;;32.55;38.45
77877;BME280;67251;50.844;7.978;2023-08-21T11:58:46;99340.66;;;32.68;36.75
77877;BME280;67251;50.844;7.978;2023-08-21T12:01:19;99335.66;;;32.23;37.09
77877;BME280;67251;50.844;7.978;2023-08-21T12:03:44;99341.69;;;31.69;38.60
77877;BME280;67251;50.844;7.978;2023-08-21T12:06:11;99345.34;;;31.35;40.79
77877;BME280;67251;50.844;7.978;2023-08-21T12:08:38;99336.50;;;31.68;42.62
77877;BME280;67251;50.844;7.978;2023-08-21T12:11:04;99341.84;;;32.37;39.71
77877;BME280;67251;50.844;7.978;2023-08-21T12:13:30;99333.41;;;32.54;38.46
77877;BME280;67251;50.844;7.978;2023-08-21T12:15:56;99341.00;;;32.87;39.07
77877;BME280;67251;50.844;7.978;2023-08-21T12:18:21;99345.97;;;33.02;39.82
77877;BME280;67251;50.844;7.978;2023-08-21T12:20:46;99343.59;;;32.71;39.36
77877;BME280;67251;50.844;7.978;2023-08-21T12:23:12;99341.66;;;32.34;40.76
77877;BME280;67251;50.844;7.978;2023-08-21T12:25:37;99340.72;;;31.74;41.46
77877;BME280;67251;50.844;7.978;2023-08-21T12:28:03;99336.25;;;31.35;43.09
77877;BME280;67251;50.844;7.978;2023-08-21T12:30:28;99340.63;;;31.44;43.89
77877;BME280;67251;50.844;7.978;2023-08-21T12:32:54;99338.13;;;31.69;41.08
77877;BME280;67251;50.844;7.978;2023-08-21T12:35:19;99332.66;;;31.34;42.80
77877;BME280;67251;50.844;7.978;2023-08-21T12:37:44;99333.50;;;31.99;41.91
77877;BME280;67251;50.844;7.978;2023-08-21T12:40:10;99330.81;;;32.20;39.69
77877;BME280;67251;50.844;7.978;2023-08-21T12:42:35;99332.44;;;32.21;38.21
77877;BME280;67251;50.844;7.978;2023-08-21T12:45:01;99342.06;;;32.15;39.30
77877;BME280;67251;50.844;7.978;2023-08-21T12:47:26;99340.25;;;32.19;40.97
77877;BME280;67251;50.844;7.978;2023-08-21T12:49:52;99343.72;;;32.45;39.05
77877;BME280;67251;50.844;7.978;2023-08-21T12:52:17;99331.19;;;32.69;38.10
77877;BME280;67251;50.844;7.978;2023-08-21T12:54:42;99340.81;;;32.71;37.81
77877;BME280;67251;50.844;7.978;2023-08-21T12:57:09;99336.88;;;32.51;38.53
77877;BME280;67251;50.844;7.978;2023-08-21T12:59:36;99344.69;;;32.11;38.90
77877;BME280;67251;50.844;7.978;2023-08-21T13:02:01;99338.59;;;31.88;39.66
77877;BME280;67251;50.844;7.978;2023-08-21T13:04:27;99339.47;;;31.54;40.49
77877;BME280;67251;50.844;7.978;2023-08-21T13:06:53;99337.53;;;31.37;40.50